MRN77 LZZI-LZPP
Flight info
| Callsign | MRN77 |
|---|---|
| Flight time | 0h 28m |
| Altitude | 8000 |
| Route | VP031 DCT O |
| Aircraft | KODI/L-SDFGR/C |
Departure
| Time | 2026-04-14 14:49 |
|---|---|
| Airport | Žilina-Dolný Hričov Airport (LZZI) |
Arrival
| Time | 2026-04-14 15:17 |
|---|---|
| Airport | Piešťany Airport (LZPP) |
| Time | Latitude | Longitude | Altitude | Speed | Heading |
|---|---|---|---|---|---|
| 2026-04-14 14:37 | 49.23271 | 18.61633 | 1019 ft | 0 kts | 279° |
| 2026-04-14 14:45 | 49.23268 | 18.61604 | 1019 ft | 7 kts | 246° |
| 2026-04-14 14:45 | 49.23263 | 18.61591 | 1019 ft | 0 kts | 238° |
| 2026-04-14 14:46 | 49.23253 | 18.61557 | 1019 ft | 8 kts | 253° |
| 2026-04-14 14:46 | 49.23298 | 18.61482 | 1019 ft | 15 kts | 341° |
| 2026-04-14 14:46 | 49.23314 | 18.61470 | 1019 ft | 0 kts | 328° |
| 2026-04-14 14:46 | 49.23316 | 18.61468 | 1019 ft | 3 kts | 327° |
| 2026-04-14 14:47 | 49.23325 | 18.61461 | 1019 ft | 1 kts | 336° |
| 2026-04-14 14:47 | 49.23376 | 18.61481 | 1020 ft | 17 kts | 57° |
| 2026-04-14 14:47 | 49.23448 | 18.61702 | 1019 ft | 28 kts | 65° |
| 2026-04-14 14:47 | 49.23514 | 18.61947 | 1018 ft | 17 kts | 73° |
| 2026-04-14 14:48 | 49.23517 | 18.61926 | 1018 ft | 14 kts | 245° |
| 2026-04-14 14:48 | 49.23380 | 18.61478 | 1020 ft | 76 kts | 244° |
| 2026-04-14 14:48 | 49.23099 | 18.60656 | 1207 ft | 97 kts | 242° |
| 2026-04-14 14:48 | 49.22743 | 18.59677 | 1443 ft | 113 kts | 242° |
| 2026-04-14 14:49 | 49.22432 | 18.58530 | 1769 ft | 121 kts | 255° |
| 2026-04-14 14:49 | 49.22212 | 18.57198 | 1999 ft | 134 kts | 263° |
| 2026-04-14 14:49 | 49.22224 | 18.55739 | 2266 ft | 141 kts | 279° |
| 2026-04-14 14:49 | 49.22392 | 18.54271 | 2666 ft | 140 kts | 282° |
| 2026-04-14 14:50 | 49.22549 | 18.52804 | 3052 ft | 140 kts | 271° |
| 2026-04-14 14:50 | 49.22611 | 18.51324 | 3389 ft | 145 kts | 272° |
| 2026-04-14 14:50 | 49.22466 | 18.49788 | 3578 ft | 148 kts | 244° |
| 2026-04-14 14:50 | 49.22053 | 18.48357 | 3894 ft | 147 kts | 243° |
| 2026-04-14 14:51 | 49.21648 | 18.46921 | 4261 ft | 148 kts | 244° |
| 2026-04-14 14:51 | 49.21243 | 18.45482 | 4622 ft | 147 kts | 243° |
| 2026-04-14 14:51 | 49.20852 | 18.44039 | 5001 ft | 147 kts | 244° |
| 2026-04-14 14:51 | 49.20684 | 18.42475 | 5372 ft | 152 kts | 266° |
| 2026-04-14 14:52 | 49.20688 | 18.40861 | 5722 ft | 152 kts | 267° |
| 2026-04-14 14:52 | 49.20686 | 18.39229 | 6039 ft | 154 kts | 267° |
| 2026-04-14 14:52 | 49.20677 | 18.37599 | 6386 ft | 154 kts | 266° |
| 2026-04-14 14:52 | 49.20666 | 18.35959 | 6737 ft | 154 kts | 266° |
| 2026-04-14 14:53 | 49.20653 | 18.34316 | 7035 ft | 155 kts | 267° |
| 2026-04-14 14:53 | 49.20641 | 18.32663 | 7330 ft | 155 kts | 267° |
| 2026-04-14 14:53 | 49.20626 | 18.31011 | 7598 ft | 156 kts | 266° |
| 2026-04-14 14:53 | 49.20377 | 18.29453 | 7811 ft | 152 kts | 231° |
| 2026-04-14 14:54 | 49.19467 | 18.28752 | 7995 ft | 155 kts | 182° |
| 2026-04-14 14:54 | 49.18443 | 18.29381 | 8007 ft | 170 kts | 137° |
| 2026-04-14 14:54 | 49.17869 | 18.30976 | 8010 ft | 176 kts | 107° |
| 2026-04-14 14:54 | 49.17647 | 18.32818 | 8002 ft | 176 kts | 99° |
| 2026-04-14 14:55 | 49.17559 | 18.34678 | 7999 ft | 175 kts | 96° |
| 2026-04-14 14:55 | 49.17490 | 18.36524 | 7997 ft | 173 kts | 95° |
| 2026-04-14 14:55 | 49.17451 | 18.38357 | 7997 ft | 172 kts | 94° |
| 2026-04-14 14:55 | 49.17426 | 18.40178 | 7999 ft | 171 kts | 94° |
| 2026-04-14 14:56 | 49.17372 | 18.43853 | 7997 ft | 174 kts | 94° |
| 2026-04-14 14:56 | 49.17314 | 18.45690 | 7995 ft | 171 kts | 104° |
| 2026-04-14 14:56 | 49.16680 | 18.47140 | 8003 ft | 167 kts | 149° |
| 2026-04-14 14:57 | 49.15573 | 18.47424 | 8001 ft | 166 kts | 194° |
| 2026-04-14 14:57 | 49.14641 | 18.46421 | 8004 ft | 168 kts | 227° |
| 2026-04-14 14:57 | 49.14005 | 18.44906 | 8003 ft | 168 kts | 243° |
| 2026-04-14 14:57 | 49.13519 | 18.43285 | 8003 ft | 168 kts | 243° |
| 2026-04-14 14:58 | 49.13021 | 18.41677 | 8007 ft | 167 kts | 237° |
| 2026-04-14 14:58 | 49.12300 | 18.40309 | 8006 ft | 166 kts | 224° |
| 2026-04-14 14:58 | 49.11496 | 18.39083 | 8002 ft | 166 kts | 223° |
| 2026-04-14 14:58 | 49.10840 | 18.37628 | 8005 ft | 166 kts | 243° |
| 2026-04-14 14:59 | 49.10367 | 18.36023 | 8003 ft | 170 kts | 244° |
| 2026-04-14 14:59 | 49.09873 | 18.34348 | 8007 ft | 172 kts | 244° |
| 2026-04-14 14:59 | 49.09378 | 18.32671 | 8009 ft | 174 kts | 244° |
| 2026-04-14 14:59 | 49.08883 | 18.30999 | 8003 ft | 173 kts | 244° |
| 2026-04-14 15:00 | 49.08384 | 18.29345 | 8000 ft | 170 kts | 239° |
| 2026-04-14 15:00 | 49.07705 | 18.27891 | 8001 ft | 168 kts | 230° |
| 2026-04-14 15:00 | 49.06980 | 18.26498 | 8003 ft | 167 kts | 230° |
| 2026-04-14 15:00 | 49.06255 | 18.25108 | 8006 ft | 168 kts | 229° |
| 2026-04-14 15:01 | 49.05524 | 18.23726 | 8002 ft | 167 kts | 226° |
| 2026-04-14 15:01 | 49.04680 | 18.22513 | 8004 ft | 168 kts | 219° |
| 2026-04-14 15:01 | 49.03788 | 18.21323 | 8014 ft | 174 kts | 219° |
| 2026-04-14 15:01 | 49.02861 | 18.20085 | 8009 ft | 180 kts | 220° |
| 2026-04-14 15:02 | 49.01906 | 18.18822 | 8011 ft | 182 kts | 217° |
| 2026-04-14 15:02 | 49.00869 | 18.17711 | 8009 ft | 183 kts | 214° |
| 2026-04-14 15:02 | 48.99887 | 18.16471 | 8007 ft | 184 kts | 219° |
| 2026-04-14 15:02 | 48.98928 | 18.15189 | 8003 ft | 184 kts | 219° |
| 2026-04-14 15:03 | 48.97947 | 18.13864 | 7494 ft | 190 kts | 221° |
| 2026-04-14 15:03 | 48.97040 | 18.12494 | 7011 ft | 174 kts | 226° |
| 2026-04-14 15:03 | 48.96301 | 18.11155 | 6626 ft | 158 kts | 229° |
| 2026-04-14 15:03 | 48.95651 | 18.09870 | 6311 ft | 150 kts | 231° |
| 2026-04-14 15:04 | 48.95057 | 18.08582 | 5946 ft | 149 kts | 232° |
| 2026-04-14 15:04 | 48.94466 | 18.07279 | 5587 ft | 148 kts | 232° |
| 2026-04-14 15:04 | 48.93896 | 18.06013 | 5367 ft | 146 kts | 233° |
| 2026-04-14 15:04 | 48.93343 | 18.04752 | 5249 ft | 138 kts | 231° |
| 2026-04-14 15:05 | 48.92818 | 18.03573 | 5157 ft | 134 kts | 233° |
| 2026-04-14 15:05 | 48.92304 | 18.02377 | 4897 ft | 138 kts | 231° |
| 2026-04-14 15:05 | 48.91755 | 18.01148 | 4539 ft | 140 kts | 231° |
| 2026-04-14 15:05 | 48.91223 | 17.99941 | 4388 ft | 135 kts | 231° |
| 2026-04-14 15:06 | 48.90662 | 17.98822 | 4248 ft | 133 kts | 224° |
| 2026-04-14 15:06 | 48.90023 | 17.97800 | 4054 ft | 135 kts | 220° |
| 2026-04-14 15:06 | 48.89358 | 17.96789 | 3860 ft | 136 kts | 221° |
| 2026-04-14 15:06 | 48.88694 | 17.95776 | 3719 ft | 135 kts | 220° |
| 2026-04-14 15:07 | 48.88026 | 17.94868 | 3763 ft | 123 kts | 216° |
| 2026-04-14 15:07 | 48.87383 | 17.94025 | 3754 ft | 123 kts | 215° |
| 2026-04-14 15:07 | 48.86678 | 17.93263 | 3689 ft | 126 kts | 208° |
| 2026-04-14 15:07 | 48.85909 | 17.92518 | 3637 ft | 134 kts | 209° |
| 2026-04-14 15:08 | 48.85155 | 17.91707 | 3693 ft | 137 kts | 209° |
| 2026-04-14 15:08 | 48.84282 | 17.90904 | 3695 ft | 155 kts | 207° |
| 2026-04-14 15:08 | 48.83331 | 17.90048 | 3696 ft | 162 kts | 207° |
| 2026-04-14 15:08 | 48.82355 | 17.89171 | 3696 ft | 163 kts | 207° |
| 2026-04-14 15:09 | 48.81395 | 17.88244 | 3696 ft | 164 kts | 213° |
| 2026-04-14 15:09 | 48.80464 | 17.87208 | 3604 ft | 170 kts | 213° |
| 2026-04-14 15:09 | 48.79488 | 17.86154 | 3434 ft | 174 kts | 212° |
| 2026-04-14 15:09 | 48.78504 | 17.85089 | 3250 ft | 174 kts | 212° |
| 2026-04-14 15:10 | 48.77464 | 17.84160 | 3072 ft | 173 kts | 204° |
| 2026-04-14 15:10 | 48.76360 | 17.83507 | 2999 ft | 167 kts | 193° |
| 2026-04-14 15:10 | 48.75241 | 17.83155 | 2994 ft | 162 kts | 188° |
| 2026-04-14 15:10 | 48.74131 | 17.82862 | 2998 ft | 162 kts | 187° |
| 2026-04-14 15:11 | 48.73023 | 17.82563 | 2995 ft | 161 kts | 188° |
| 2026-04-14 15:11 | 48.71901 | 17.82263 | 2995 ft | 162 kts | 187° |
| 2026-04-14 15:11 | 48.70816 | 17.81971 | 2993 ft | 160 kts | 187° |
| 2026-04-14 15:11 | 48.69776 | 17.81689 | 2997 ft | 160 kts | 187° |
| 2026-04-14 15:12 | 48.68681 | 17.81386 | 2995 ft | 160 kts | 187° |
| 2026-04-14 15:12 | 48.67596 | 17.81050 | 2992 ft | 160 kts | 193° |
| 2026-04-14 15:12 | 48.66542 | 17.80475 | 3000 ft | 163 kts | 198° |
| 2026-04-14 15:12 | 48.65461 | 17.79859 | 3001 ft | 168 kts | 197° |
| 2026-04-14 15:13 | 48.64362 | 17.79225 | 2998 ft | 170 kts | 198° |
| 2026-04-14 15:13 | 48.63248 | 17.78586 | 2992 ft | 164 kts | 198° |
| 2026-04-14 15:13 | 48.62285 | 17.78021 | 2978 ft | 139 kts | 197° |
| 2026-04-14 15:13 | 48.61438 | 17.77510 | 2985 ft | 122 kts | 197° |
| 2026-04-14 15:14 | 48.60689 | 17.77060 | 2977 ft | 107 kts | 196° |
| 2026-04-14 15:14 | 48.59918 | 17.76893 | 2625 ft | 121 kts | 169° |
| 2026-04-14 15:14 | 48.59161 | 17.77392 | 2447 ft | 119 kts | 141° |
| 2026-04-14 15:14 | 48.58640 | 17.78335 | 2261 ft | 117 kts | 121° |
| 2026-04-14 15:15 | 48.58470 | 17.79098 | 2051 ft | 115 kts | 102° |
| 2026-04-14 15:15 | 48.58549 | 17.80243 | 1741 ft | 101 kts | 75° |
| 2026-04-14 15:15 | 48.58917 | 17.81145 | 1316 ft | 103 kts | 50° |
| 2026-04-14 15:15 | 48.59469 | 17.81757 | 1026 ft | 94 kts | 22° |
| 2026-04-14 15:16 | 48.60070 | 17.81987 | 884 ft | 84 kts | 9° |
| 2026-04-14 15:16 | 48.60629 | 17.82174 | 753 ft | 81 kts | 10° |
| 2026-04-14 15:16 | 48.61165 | 17.82366 | 659 ft | 78 kts | 11° |
| 2026-04-14 15:16 | 48.61678 | 17.82549 | 563 ft | 70 kts | 11° |
| 2026-04-14 15:17 | 48.62101 | 17.82698 | 531 ft | 53 kts | 15° |
| 2026-04-14 15:17 | 48.62326 | 17.82783 | 531 ft | 18 kts | 11° |
| 2026-04-14 15:17 | 48.62350 | 17.82830 | 531 ft | 2 kts | 125° |
| 2026-04-14 15:17 | 48.62300 | 17.82869 | 530 ft | 14 kts | 157° |
| 2026-04-14 15:18 | 48.62176 | 17.82948 | 530 ft | 24 kts | 158° |
| 2026-04-14 15:18 | 48.62017 | 17.83042 | 530 ft | 24 kts | 160° |
| 2026-04-14 15:18 | 48.61883 | 17.83074 | 530 ft | 19 kts | 193° |
| 2026-04-14 15:18 | 48.61743 | 17.83025 | 530 ft | 22 kts | 193° |
| 2026-04-14 15:19 | 48.61596 | 17.82972 | 530 ft | 22 kts | 191° |
| 2026-04-14 15:19 | 48.61436 | 17.82954 | 530 ft | 24 kts | 184° |
| 2026-04-14 15:19 | 48.61260 | 17.82938 | 530 ft | 21 kts | 185° |
| 2026-04-14 15:19 | 48.61188 | 17.82940 | 530 ft | 6 kts | 127° |
| 2026-04-14 15:20 | 48.61173 | 17.83020 | 530 ft | 5 kts | 95° |
| 2026-04-14 15:20 | 48.61151 | 17.83054 | 530 ft | 6 kts | 206° |
| 2026-04-14 15:20 | 48.61138 | 17.83051 | 530 ft | 2 kts | 137° |
| 2026-04-14 15:20 | 48.61137 | 17.83059 | 530 ft | 0 kts | 91° |